createdAt,value
2022-10-20T00:05:46.617Z,5.8762541806020065
2022-10-20T00:12:15.550Z,6.080267558528428
2022-10-20T00:18:47.484Z,6.321070234113712
2022-10-20T00:27:46.528Z,6.7792642140468224
2022-10-20T00:35:33.296Z,6.989966555183947
2022-10-20T00:42:01.310Z,6.351170568561873
2022-10-20T00:48:30.974Z,5.678929765886288
2022-10-20T01:00:26.828Z,5.170568561872909
2022-10-20T01:06:56.921Z,4.826086956521739
2022-10-20T01:19:23.019Z,4.882943143812709
2022-10-20T01:26:04.462Z,4.290969899665551
2022-10-20T01:38:04.315Z,4.705685618729097
2022-10-20T01:44:33.646Z,5.086956521739131
2022-10-20T01:51:03.506Z,4.62876254180602
2022-10-20T01:57:33.078Z,5.1003344481605355
2022-10-20T02:04:02.623Z,4.829431438127091
2022-10-20T02:10:32.424Z,4.481605351170568
2022-10-20T02:17:02.446Z,3.739130434782609
2022-10-20T02:23:41.617Z,4.247491638795987
2022-10-20T02:30:11.220Z,4.2842809364548495
2022-10-20T02:36:40.279Z,4.234113712374582
2022-10-20T02:43:09.712Z,4.913043478260869
2022-10-20T02:49:38.653Z,3.722408026755853
2022-10-20T02:56:06.775Z,4.210702341137123
2022-10-20T03:02:34.585Z,4.575250836120401
2022-10-20T03:09:03.780Z,4.364548494983278
2022-10-20T03:15:32.711Z,4.411371237458194
2022-10-20T03:23:38.848Z,4.702341137123746
2022-10-20T03:38:27.785Z,4.959866220735786
2022-10-20T03:44:56.834Z,7.374581939799331
2022-10-20T03:56:05.929Z,6.474916387959866
2022-10-20T04:05:58.584Z,6.344481605351171
2022-10-20T04:12:27.723Z,5.331103678929765
2022-10-20T04:18:55.788Z,6.247491638795987
2022-10-20T04:28:33.387Z,6.538461538461538
2022-10-20T04:35:03.725Z,6.424749163879599
2022-10-20T04:41:32.405Z,6.036789297658863
2022-10-20T04:48:02.653Z,6.073578595317726
2022-10-20T04:54:32.144Z,6.190635451505017
2022-10-20T05:09:18.171Z,4.705685618729097
2022-10-20T06:44:35.049Z,4.936454849498328
2022-10-20T06:51:02.569Z,5.40133779264214
2022-10-20T06:57:30.306Z,5.016722408026756
2022-10-20T07:03:57.938Z,4.54180602006689
2022-10-20T07:10:25.334Z,5.414715719063545
2022-10-20T07:16:53.874Z,5.030100334448161
2022-10-20T07:23:41.851Z,5.765886287625418
2022-10-20T07:30:09.977Z,5.59866220735786
2022-10-20T07:36:38.055Z,5.705685618729097
2022-10-20T07:52:21.941Z,7.351170568561873
2022-10-20T08:11:20.396Z,8.224080267558529
2022-10-20T08:17:49.662Z,8.053511705685619
2022-10-20T08:26:44.470Z,8.505016722408026
2022-10-20T08:33:13.123Z,8.749163879598662
2022-10-20T08:39:41.297Z,8.725752508361204
2022-10-20T08:56:47.595Z,10.217391304347826
2022-10-20T09:03:15.888Z,10.17056856187291
2022-10-20T09:10:35.745Z,11.963210702341136
2022-10-20T09:17:04.111Z,10.441471571906355
2022-10-20T09:23:42.721Z,9.612040133779264
2022-10-20T09:30:10.859Z,9.267558528428093
2022-10-20T09:36:39.115Z,10.491638795986622
2022-10-20T09:43:07.898Z,10.963210702341136
2022-10-20T09:49:36.399Z,11.020066889632107
2022-10-20T09:56:04.649Z,11.936454849498327
2022-10-20T10:02:32.860Z,11.23076923076923
2022-10-20T10:17:10.744Z,11.82943143812709
2022-10-20T10:25:10.384Z,12.22742474916388
2022-10-20T10:35:22.181Z,12.501672240802675
2022-10-20T10:41:50.259Z,12.618729096989966
2022-10-20T10:56:02.286Z,12.608695652173912
2022-10-20T11:02:30.052Z,14.036789297658864
2022-10-20T11:14:31.066Z,12.311036789297658
2022-10-20T11:30:36.117Z,11.709030100334449
2022-10-20T11:37:03.898Z,13.37123745819398
2022-10-20T11:43:32.452Z,13.381270903010034
2022-10-20T11:50:00.701Z,12.327759197324415
2022-10-20T11:56:29.220Z,12.735785953177258
2022-10-20T12:02:59.227Z,12.073578595317725
2022-10-20T12:15:58.536Z,12.354515050167224
2022-10-20T12:22:26.524Z,12.551839464882944
2022-10-20T12:29:03.232Z,12.177257525083611
2022-10-20T12:46:35.176Z,11.214046822742475
2022-10-20T12:53:02.888Z,11.719063545150501
2022-10-20T13:05:37.352Z,11.488294314381271
2022-10-20T13:12:06.589Z,11.301003344481606
2022-10-20T13:22:32.840Z,10.351170568561873
2022-10-20T13:29:13.719Z,11.033444816053512
2022-10-20T13:35:41.473Z,10.321070234113712
2022-10-20T13:42:09.053Z,10.103678929765886
2022-10-20T13:48:36.978Z,10.846153846153847
2022-10-20T14:00:24.464Z,9.842809364548495
2022-10-20T14:06:52.630Z,10.321070234113712
2022-10-20T14:13:20.469Z,10.451505016722408
2022-10-20T14:20:12.781Z,10.842809364548495
2022-10-20T14:26:51.197Z,10.94314381270903
2022-10-20T14:43:46.112Z,13.023411371237458
2022-10-20T14:50:13.357Z,12.14046822742475
2022-10-20T14:56:41.003Z,12.357859531772576
2022-10-20T15:03:09.065Z,11.869565217391305
2022-10-20T15:09:36.721Z,11.08695652173913
2022-10-20T15:16:05.113Z,12.147157190635452
2022-10-20T15:22:32.733Z,12.735785953177258
2022-10-20T15:29:12.671Z,12.792642140468228
2022-10-20T15:35:40.577Z,12.879598662207357
2022-10-20T15:42:08.290Z,13.14046822742475
2022-10-20T15:48:36.527Z,13.14046822742475
2022-10-20T15:55:06.346Z,13.752508361204013
2022-10-20T16:03:45.817Z,12.150501672240802
2022-10-20T16:10:15.173Z,13.234113712374581
2022-10-20T16:16:44.534Z,11.96989966555184
2022-10-20T16:23:20.897Z,13.180602006688963
2022-10-20T16:34:52.943Z,14.94314381270903
2022-10-20T16:41:21.490Z,15.200668896321071
2022-10-20T16:52:40.619Z,19.648829431438127
2022-10-20T17:04:00.532Z,15.521739130434783
2022-10-20T17:10:28.822Z,15.224080267558529
2022-10-20T17:16:57.305Z,14.80267558528428
2022-10-20T17:23:26.318Z,17.97993311036789
2022-10-20T17:30:21.490Z,19.959866220735787
2022-10-20T17:36:52.313Z,14.816053511705686
2022-10-20T17:43:21.835Z,15.692307692307692
2022-10-20T17:52:53.520Z,15.448160535117056
2022-10-20T17:59:21.204Z,16.779264214046822
2022-10-20T18:05:48.356Z,16.558528428093645
2022-10-20T18:19:36.074Z,16.137123745819398
2022-10-20T18:26:15.669Z,16.431438127090303
2022-10-20T18:32:44.054Z,16.45484949832776
2022-10-20T18:39:12.422Z,17.872909698996654
2022-10-20T18:45:39.853Z,19.391304347826086
2022-10-20T18:52:07.053Z,18.836120401337794
2022-10-20T18:58:34.688Z,18.05351170568562
2022-10-20T19:06:52.891Z,18.11705685618729
2022-10-20T19:13:20.261Z,16.695652173913043
2022-10-20T19:19:48.299Z,18.468227424749163
2022-10-20T19:47:48.951Z,19.39799331103679
2022-10-20T19:54:17.024Z,19.2809364548495
2022-10-20T20:00:46.273Z,21.040133779264213
2022-10-20T20:10:44.729Z,21.42809364548495
2022-10-20T20:17:13.723Z,21.401337792642142
2022-10-20T20:37:01.904Z,22.010033444816052
2022-10-20T20:43:30.555Z,23.17056856187291
2022-10-20T20:57:55.578Z,23.00334448160535
2022-10-20T21:09:06.016Z,25.157190635451506
2022-10-20T21:15:35.133Z,25.70903010033445
2022-10-20T21:22:08.464Z,25.665551839464882
2022-10-20T21:28:54.074Z,25.46153846153846
2022-10-20T21:38:01.047Z,24.94314381270903
2022-10-20T21:44:29.361Z,26.070234113712374
2022-10-20T21:50:57.427Z,25.8561872909699
2022-10-20T22:02:26.202Z,26.34448160535117
2022-10-20T22:08:55.654Z,27.648829431438127
2022-10-20T22:15:23.691Z,28.304347826086957
2022-10-20T22:21:52.731Z,28.698996655518396
2022-10-20T22:28:36.911Z,26.956521739130434
2022-10-20T22:35:05.747Z,29.608695652173914
2022-10-20T22:51:41.660Z,28.648829431438127
2022-10-20T23:03:05.300Z,27.204013377926422
2022-10-20T23:16:52.641Z,27.307692307692307
2022-10-20T23:26:18.767Z,27.785953177257525
2022-10-20T23:32:47.362Z,28.418060200668897
2022-10-20T23:39:14.597Z,27.54180602006689
2022-10-20T23:45:42.683Z,27.698996655518396
2022-10-20T23:52:10.573Z,27.354515050167223
2022-10-20T23:58:38.527Z,27.88294314381271
